sensor_id;sensor_type;location;lat;lon;timestamp;noise_LAeq;noise_LA_min;noise_LA_max;noise_LA01;noise_LA95
61095;Laerm;20450;49.074;9.158;2023-09-30T00:01:00;38.99;35.94;41.82;;
61095;Laerm;20450;49.074;9.158;2023-09-30T00:03:28;39.06;35.94;42.16;;
61095;Laerm;20450;49.074;9.158;2023-09-30T00:05:56;38.94;35.66;42.22;;
61095;Laerm;20450;49.074;9.158;2023-09-30T00:08:23;39.27;35.36;46.20;;
61095;Laerm;20450;49.074;9.158;2023-09-30T00:10:50;39.22;35.36;43.09;;
61095;Laerm;20450;49.074;9.158;2023-09-30T00:13:20;38.75;35.04;42.71;;
61095;Laerm;20450;49.074;9.158;2023-09-30T00:15:47;40.10;35.36;53.43;;
61095;Laerm;20450;49.074;9.158;2023-09-30T00:18:14;39.04;35.36;46.18;;
61095;Laerm;20450;49.074;9.158;2023-09-30T00:20:42;39.22;35.36;45.86;;
61095;Laerm;20450;49.074;9.158;2023-09-30T00:23:08;38.43;35.04;44.94;;
61095;Laerm;20450;49.074;9.158;2023-09-30T00:25:36;38.69;34.69;44.07;;
61095;Laerm;20450;49.074;9.158;2023-09-30T00:28:03;38.57;35.36;41.68;;
61095;Laerm;20450;49.074;9.158;2023-09-30T00:30:32;38.62;35.36;43.29;;
61095;Laerm;20450;49.074;9.158;2023-09-30T00:33:01;38.43;35.04;41.22;;
61095;Laerm;20450;49.074;9.158;2023-09-30T00:35:32;38.79;35.04;44.23;;
61095;Laerm;20450;49.074;9.158;2023-09-30T00:37:59;38.53;35.04;53.76;;
61095;Laerm;20450;49.074;9.158;2023-09-30T00:40:27;38.32;35.04;40.89;;
61095;Laerm;20450;49.074;9.158;2023-09-30T00:42:54;38.62;34.31;42.03;;
61095;Laerm;20450;49.074;9.158;2023-09-30T00:45:22;38.40;35.04;41.61;;
61095;Laerm;20450;49.074;9.158;2023-09-30T00:47:51;38.53;35.04;41.61;;
61095;Laerm;20450;49.074;9.158;2023-09-30T00:50:20;38.64;35.04;43.44;;
61095;Laerm;20450;49.074;9.158;2023-09-30T00:52:49;39.13;35.94;43.29;;
61095;Laerm;20450;49.074;9.158;2023-09-30T00:55:19;38.75;35.36;42.16;;
61095;Laerm;20450;49.074;9.158;2023-09-30T00:57:46;39.03;35.66;43.54;;
61095;Laerm;20450;49.074;9.158;2023-09-30T01:00:15;38.91;36.20;41.38;;
61095;Laerm;20450;49.074;9.158;2023-09-30T01:02:44;39.24;36.69;43.09;;
61095;Laerm;20450;49.074;9.158;2023-09-30T01:05:13;39.40;35.94;44.62;;
61095;Laerm;20450;49.074;9.158;2023-09-30T01:07:42;40.27;36.69;48.84;;
61095;Laerm;20450;49.074;9.158;2023-09-30T01:10:10;38.81;35.66;40.89;;
61095;Laerm;20450;49.074;9.158;2023-09-30T01:12:37;38.86;35.94;41.22;;
61095;Laerm;20450;49.074;9.158;2023-09-30T01:15:05;39.77;36.20;44.23;;
61095;Laerm;20450;49.074;9.158;2023-09-30T01:17:34;39.39;36.20;45.75;;
61095;Laerm;20450;49.074;9.158;2023-09-30T01:20:02;39.64;35.94;43.34;;
61095;Laerm;20450;49.074;9.158;2023-09-30T01:22:31;38.95;36.45;41.14;;
61095;Laerm;20450;49.074;9.158;2023-09-30T01:24:58;39.02;35.94;42.53;;
61095;Laerm;20450;49.074;9.158;2023-09-30T01:27:27;39.10;36.45;44.58;;
61095;Laerm;20450;49.074;9.158;2023-09-30T01:29:56;38.74;35.94;41.89;;
61095;Laerm;20450;49.074;9.158;2023-09-30T01:32:24;38.84;35.66;41.75;;
61095;Laerm;20450;49.074;9.158;2023-09-30T01:34:52;39.03;36.20;41.96;;
61095;Laerm;20450;49.074;9.158;2023-09-30T01:37:19;39.06;36.45;42.03;;
61095;Laerm;20450;49.074;9.158;2023-09-30T01:39:48;39.32;36.45;42.71;;
61095;Laerm;20450;49.074;9.158;2023-09-30T01:42:15;39.62;37.12;44.35;;
61095;Laerm;20450;49.074;9.158;2023-09-30T01:44:44;39.17;36.45;40.89;;
61095;Laerm;20450;49.074;9.158;2023-09-30T01:47:11;39.53;36.45;43.54;;
61095;Laerm;20450;49.074;9.158;2023-09-30T01:49:38;39.33;35.94;41.88;;
61095;Laerm;20450;49.074;9.158;2023-09-30T01:52:06;40.26;36.91;51.88;;
61095;Laerm;20450;49.074;9.158;2023-09-30T01:54:33;39.46;36.69;42.98;;
61095;Laerm;20450;49.074;9.158;2023-09-30T01:57:03;39.18;36.45;41.96;;
61095;Laerm;20450;49.074;9.158;2023-09-30T01:59:30;39.23;36.45;41.22;;
61095;Laerm;20450;49.074;9.158;2023-09-30T02:01:57;40.18;37.12;44.69;;
61095;Laerm;20450;49.074;9.158;2023-09-30T02:04:25;39.74;37.32;42.47;;
61095;Laerm;20450;49.074;9.158;2023-09-30T02:06:52;40.69;36.91;45.86;;
61095;Laerm;20450;49.074;9.158;2023-09-30T02:09:19;41.05;38.52;44.94;;
61095;Laerm;20450;49.074;9.158;2023-09-30T02:11:46;40.13;37.70;42.65;;
61095;Laerm;20450;49.074;9.158;2023-09-30T02:14:15;39.92;37.88;41.61;;
61095;Laerm;20450;49.074;9.158;2023-09-30T02:16:42;40.14;38.21;41.82;;
61095;Laerm;20450;49.074;9.158;2023-09-30T02:19:09;41.39;38.21;46.69;;
61095;Laerm;20450;49.074;9.158;2023-09-30T02:21:36;40.28;38.21;42.71;;
61095;Laerm;20450;49.074;9.158;2023-09-30T02:24:04;39.94;37.70;42.53;;
61095;Laerm;20450;49.074;9.158;2023-09-30T02:26:32;39.89;36.91;43.58;;
61095;Laerm;20450;49.074;9.158;2023-09-30T02:28:59;39.86;37.35;42.22;;
61095;Laerm;20450;49.074;9.158;2023-09-30T02:31:27;39.87;37.52;41.68;;
61095;Laerm;20450;49.074;9.158;2023-09-30T02:33:55;40.40;38.21;44.35;;
61095;Laerm;20450;49.074;9.158;2023-09-30T02:36:26;39.81;37.32;43.09;;
61095;Laerm;20450;49.074;9.158;2023-09-30T02:38:53;39.66;37.32;42.53;;
61095;Laerm;20450;49.074;9.158;2023-09-30T02:41:20;40.74;37.32;46.71;;
61095;Laerm;20450;49.074;9.158;2023-09-30T02:43:48;39.80;37.52;42.41;;
61095;Laerm;20450;49.074;9.158;2023-09-30T02:46:16;40.05;37.70;42.29;;
61095;Laerm;20450;49.074;9.158;2023-09-30T02:48:44;40.27;38.21;41.96;;
61095;Laerm;20450;49.074;9.158;2023-09-30T02:51:12;40.29;38.05;42.82;;
61095;Laerm;20450;49.074;9.158;2023-09-30T02:53:39;41.04;37.70;44.58;;
61095;Laerm;20450;49.074;9.158;2023-09-30T02:56:06;39.98;38.05;42.41;;
61095;Laerm;20450;49.074;9.158;2023-09-30T02:58:35;40.27;37.88;48.36;;
61095;Laerm;20450;49.074;9.158;2023-09-30T03:01:04;40.15;37.88;42.42;;
61095;Laerm;20450;49.074;9.158;2023-09-30T03:03:31;41.74;37.88;52.64;;
61095;Laerm;20450;49.074;9.158;2023-09-30T03:06:00;40.61;37.88;44.11;;
61095;Laerm;20450;49.074;9.158;2023-09-30T03:08:27;40.45;38.21;42.59;;
61095;Laerm;20450;49.074;9.158;2023-09-30T03:10:55;40.58;38.52;43.04;;
61095;Laerm;20450;49.074;9.158;2023-09-30T03:13:25;40.89;38.81;43.54;;
61095;Laerm;20450;49.074;9.158;2023-09-30T03:15:52;40.97;38.81;42.98;;
61095;Laerm;20450;49.074;9.158;2023-09-30T03:18:19;41.72;38.37;52.81;;
61095;Laerm;20450;49.074;9.158;2023-09-30T03:20:47;41.03;39.21;42.88;;
61095;Laerm;20450;49.074;9.158;2023-09-30T03:23:17;41.45;39.58;43.81;;
61095;Laerm;20450;49.074;9.158;2023-09-30T03:25:43;41.42;39.08;46.73;;
61095;Laerm;20450;49.074;9.158;2023-09-30T03:28:10;40.93;38.95;42.88;;
61095;Laerm;20450;49.074;9.158;2023-09-30T03:30:40;41.77;38.99;45.45;;
61095;Laerm;20450;49.074;9.158;2023-09-30T03:33:07;40.83;38.81;42.59;;
61095;Laerm;20450;49.074;9.158;2023-09-30T03:35:34;40.93;38.67;43.04;;
61095;Laerm;20450;49.074;9.158;2023-09-30T03:38:03;41.10;38.95;47.70;;
61095;Laerm;20450;49.074;9.158;2023-09-30T03:40:31;41.25;39.08;51.91;;
61095;Laerm;20450;49.074;9.158;2023-09-30T03:42:58;41.68;39.08;52.45;;
61095;Laerm;20450;49.074;9.158;2023-09-30T03:45:28;41.33;39.08;46.97;;
61095;Laerm;20450;49.074;9.158;2023-09-30T03:47:55;42.17;39.58;48.52;;
61095;Laerm;20450;49.074;9.158;2023-09-30T03:50:22;42.17;39.58;48.52;;
61095;Laerm;20450;49.074;9.158;2023-09-30T03:52:51;41.79;37.32;47.10;;
61095;Laerm;20450;49.074;9.158;2023-09-30T03:55:20;41.46;36.69;44.69;;
61095;Laerm;20450;49.074;9.158;2023-09-30T03:57:49;41.94;38.95;46.87;;
61095;Laerm;20450;49.074;9.158;2023-09-30T04:00:17;42.82;39.92;44.87;;
61095;Laerm;20450;49.074;9.158;2023-09-30T04:02:48;42.18;39.92;44.23;;
61095;Laerm;20450;49.074;9.158;2023-09-30T04:05:16;41.35;39.58;42.82;;
61095;Laerm;20450;49.074;9.158;2023-09-30T04:07:43;41.77;39.92;45.63;;
61095;Laerm;20450;49.074;9.158;2023-09-30T04:10:10;41.69;40.03;43.24;;
61095;Laerm;20450;49.074;9.158;2023-09-30T04:12:39;42.39;40.62;45.45;;
61095;Laerm;20450;49.074;9.158;2023-09-30T04:15:09;41.69;40.03;43.86;;
61095;Laerm;20450;49.074;9.158;2023-09-30T04:17:38;41.62;39.70;43.72;;
61095;Laerm;20450;49.074;9.158;2023-09-30T04:20:08;41.84;39.58;44.47;;
61095;Laerm;20450;49.074;9.158;2023-09-30T04:22:36;41.88;40.03;44.03;;
61095;Laerm;20450;49.074;9.158;2023-09-30T04:25:04;56.17;39.78;92.28;;
61095;Laerm;20450;49.074;9.158;2023-09-30T04:27:32;58.73;40.18;94.87;;
61095;Laerm;20450;49.074;9.158;2023-09-30T04:30:00;42.08;40.13;44.62;;
61095;Laerm;20450;49.074;9.158;2023-09-30T04:32:29;42.56;40.03;46.50;;
61095;Laerm;20450;49.074;9.158;2023-09-30T04:34:57;42.63;40.43;48.29;;
61095;Laerm;20450;49.074;9.158;2023-09-30T04:37:25;42.60;40.62;47.24;;
61095;Laerm;20450;49.074;9.158;2023-09-30T04:39:54;42.24;40.54;44.11;;
61095;Laerm;20450;49.074;9.158;2023-09-30T04:42:22;42.42;39.81;46.23;;
61095;Laerm;20450;49.074;9.158;2023-09-30T04:44:50;43.06;40.71;46.50;;
61095;Laerm;20450;49.074;9.158;2023-09-30T04:47:18;42.44;40.43;45.30;;
61095;Laerm;20450;49.074;9.158;2023-09-30T04:49:47;42.70;41.22;45.99;;
61095;Laerm;20450;49.074;9.158;2023-09-30T04:52:14;42.47;40.23;44.87;;
61095;Laerm;20450;49.074;9.158;2023-09-30T04:54:42;42.33;40.43;44.62;;
61095;Laerm;20450;49.074;9.158;2023-09-30T04:57:09;42.50;40.80;45.17;;
61095;Laerm;20450;49.074;9.158;2023-09-30T04:59:36;42.17;40.80;44.19;;
61095;Laerm;20450;49.074;9.158;2023-09-30T05:02:05;42.08;40.13;44.80;;
61095;Laerm;20450;49.074;9.158;2023-09-30T05:04:33;42.33;40.33;45.27;;
61095;Laerm;20450;49.074;9.158;2023-09-30T05:07:02;42.65;40.98;48.67;;
61095;Laerm;20450;49.074;9.158;2023-09-30T05:09:29;42.50;40.89;47.72;;
61095;Laerm;20450;49.074;9.158;2023-09-30T05:11:56;42.56;40.33;52.51;;
61095;Laerm;20450;49.074;9.158;2023-09-30T05:14:24;42.27;40.43;53.27;;
61095;Laerm;20450;49.074;9.158;2023-09-30T05:16:53;43.09;40.13;57.68;;
61095;Laerm;20450;49.074;9.158;2023-09-30T05:19:21;43.04;39.81;59.92;;
61095;Laerm;20450;49.074;9.158;2023-09-30T05:21:48;42.24;40.62;51.13;;
61095;Laerm;20450;49.074;9.158;2023-09-30T05:24:20;42.35;40.80;48.55;;
61095;Laerm;20450;49.074;9.158;2023-09-30T05:26:48;45.01;40.71;70.21;;
61095;Laerm;20450;49.074;9.158;2023-09-30T05:29:15;42.31;40.89;46.87;;
61095;Laerm;20450;49.074;9.158;2023-09-30T05:31:42;42.31;40.71;46.50;;
61095;Laerm;20450;49.074;9.158;2023-09-30T05:34:09;42.19;40.45;44.43;;
61095;Laerm;20450;49.074;9.158;2023-09-30T05:36:36;43.08;40.71;57.12;;
61095;Laerm;20450;49.074;9.158;2023-09-30T05:39:03;42.76;40.53;47.34;;
61095;Laerm;20450;49.074;9.158;2023-09-30T05:41:35;42.85;41.14;46.30;;
61095;Laerm;20450;49.074;9.158;2023-09-30T05:44:02;42.90;41.30;53.65;;
61095;Laerm;20450;49.074;9.158;2023-09-30T05:46:30;44.74;41.82;59.21;;
61095;Laerm;20450;49.074;9.158;2023-09-30T05:48:57;45.00;42.65;47.67;;
61095;Laerm;20450;49.074;9.158;2023-09-30T05:51:28;45.80;43.54;48.55;;
61095;Laerm;20450;49.074;9.158;2023-09-30T05:53:56;44.08;42.59;46.89;;
61095;Laerm;20450;49.074;9.158;2023-09-30T05:56:23;45.10;43.09;55.86;;
61095;Laerm;20450;49.074;9.158;2023-09-30T05:58:53;45.64;43.90;58.28;;
61095;Laerm;20450;49.074;9.158;2023-09-30T06:01:20;45.09;42.88;55.84;;
61095;Laerm;20450;49.074;9.158;2023-09-30T06:03:47;45.68;41.61;57.33;;
61095;Laerm;20450;49.074;9.158;2023-09-30T06:06:15;43.46;40.80;49.15;;
61095;Laerm;20450;49.074;9.158;2023-09-30T06:08:43;44.90;42.76;54.57;;
61095;Laerm;20450;49.074;9.158;2023-09-30T06:11:16;43.11;41.30;49.04;;
61095;Laerm;20450;49.074;9.158;2023-09-30T06:13:43;44.09;40.98;53.69;;
61095;Laerm;20450;49.074;9.158;2023-09-30T06:16:12;42.89;38.95;46.82;;
61095;Laerm;20450;49.074;9.158;2023-09-30T06:18:39;42.99;39.70;52.35;;
61095;Laerm;20450;49.074;9.158;2023-09-30T06:21:06;43.44;40.89;48.21;;
61095;Laerm;20450;49.074;9.158;2023-09-30T06:23:34;44.17;41.68;49.03;;
61095;Laerm;20450;49.074;9.158;2023-09-30T06:26:02;43.39;41.22;47.52;;
61095;Laerm;20450;49.074;9.158;2023-09-30T06:28:29;43.22;41.38;46.57;;
61095;Laerm;20450;49.074;9.158;2023-09-30T06:30:56;42.83;38.95;48.70;;
61095;Laerm;20450;49.074;9.158;2023-09-30T06:33:25;42.67;38.37;47.46;;
61095;Laerm;20450;49.074;9.158;2023-09-30T06:35:52;40.91;38.05;46.20;;
61095;Laerm;20450;49.074;9.158;2023-09-30T06:38:20;42.74;38.18;53.92;;
61095;Laerm;20450;49.074;9.158;2023-09-30T06:40:47;43.73;41.14;48.91;;
61095;Laerm;20450;49.074;9.158;2023-09-30T06:43:15;43.62;40.23;49.55;;
61095;Laerm;20450;49.074;9.158;2023-09-30T06:45:42;44.11;41.96;49.44;;
61095;Laerm;20450;49.074;9.158;2023-09-30T06:48:09;44.59;42.35;54.13;;
61095;Laerm;20450;49.074;9.158;2023-09-30T06:50:43;43.99;41.89;50.33;;
61095;Laerm;20450;49.074;9.158;2023-09-30T06:53:11;43.73;41.61;49.79;;
61095;Laerm;20450;49.074;9.158;2023-09-30T06:55:38;44.13;41.53;55.12;;
61095;Laerm;20450;49.074;9.158;2023-09-30T06:58:05;45.91;43.09;50.97;;
61095;Laerm;20450;49.074;9.158;2023-09-30T07:00:33;46.92;44.31;55.74;;
61095;Laerm;20450;49.074;9.158;2023-09-30T07:03:00;47.83;45.89;52.79;;
61095;Laerm;20450;49.074;9.158;2023-09-30T07:05:27;46.96;44.80;51.30;;
61095;Laerm;20450;49.074;9.158;2023-09-30T07:07:56;46.57;44.43;58.36;;
61095;Laerm;20450;49.074;9.158;2023-09-30T07:10:23;47.28;45.11;51.95;;
61095;Laerm;20450;49.074;9.158;2023-09-30T07:12:50;46.13;43.09;52.88;;
61095;Laerm;20450;49.074;9.158;2023-09-30T07:15:19;44.85;42.82;52.36;;
61095;Laerm;20450;49.074;9.158;2023-09-30T07:17:46;44.46;41.68;48.77;;
61095;Laerm;20450;49.074;9.158;2023-09-30T07:20:14;45.05;40.80;49.11;;
61095;Laerm;20450;49.074;9.158;2023-09-30T07:22:41;44.39;41.38;51.07;;
61095;Laerm;20450;49.074;9.158;2023-09-30T07:25:12;44.87;42.03;56.11;;
61095;Laerm;20450;49.074;9.158;2023-09-30T07:27:39;43.19;41.30;47.40;;
61095;Laerm;20450;49.074;9.158;2023-09-30T07:30:08;42.66;39.81;51.41;;
61095;Laerm;20450;49.074;9.158;2023-09-30T07:32:35;42.89;40.03;47.83;;
61095;Laerm;20450;49.074;9.158;2023-09-30T07:35:03;43.23;38.95;51.43;;
61095;Laerm;20450;49.074;9.158;2023-09-30T07:37:30;44.76;41.46;54.52;;
61095;Laerm;20450;49.074;9.158;2023-09-30T07:39:57;44.02;41.38;53.79;;
61095;Laerm;20450;49.074;9.158;2023-09-30T07:42:26;43.66;41.14;51.02;;
61095;Laerm;20450;49.074;9.158;2023-09-30T07:44:53;42.58;39.81;51.21;;
61095;Laerm;20450;49.074;9.158;2023-09-30T07:47:24;42.50;40.13;49.16;;
61095;Laerm;20450;49.074;9.158;2023-09-30T07:49:52;44.10;42.29;50.45;;
61095;Laerm;20450;49.074;9.158;2023-09-30T07:52:22;44.05;42.22;48.80;;
61095;Laerm;20450;49.074;9.158;2023-09-30T07:54:54;45.63;42.76;54.50;;
61095;Laerm;20450;49.074;9.158;2023-09-30T07:57:22;45.13;42.65;57.68;;
61095;Laerm;20450;49.074;9.158;2023-09-30T07:59:50;45.04;43.04;53.63;;
61095;Laerm;20450;49.074;9.158;2023-09-30T08:02:17;46.28;43.49;57.38;;
61095;Laerm;20450;49.074;9.158;2023-09-30T08:04:49;45.26;43.14;51.69;;
61095;Laerm;20450;49.074;9.158;2023-09-30T08:07:17;45.37;43.54;50.18;;
61095;Laerm;20450;49.074;9.158;2023-09-30T08:09:44;47.43;45.39;50.58;;
61095;Laerm;20450;49.074;9.158;2023-09-30T08:12:11;46.63;44.90;52.52;;
61095;Laerm;20450;49.074;9.158;2023-09-30T08:14:38;46.11;44.27;51.80;;
61095;Laerm;20450;49.074;9.158;2023-09-30T08:17:09;46.71;44.97;53.87;;
61095;Laerm;20450;49.074;9.158;2023-09-30T08:19:40;46.45;44.47;50.95;;
61095;Laerm;20450;49.074;9.158;2023-09-30T08:22:07;45.90;43.58;53.07;;
61095;Laerm;20450;49.074;9.158;2023-09-30T08:24:35;45.35;43.58;48.31;;
61095;Laerm;20450;49.074;9.158;2023-09-30T08:27:02;45.52;43.86;51.31;;
61095;Laerm;20450;49.074;9.158;2023-09-30T08:29:29;45.89;43.39;58.25;;
61095;Laerm;20450;49.074;9.158;2023-09-30T08:31:56;45.85;43.29;51.77;;
61095;Laerm;20450;49.074;9.158;2023-09-30T08:34:25;45.16;42.22;54.69;;
61095;Laerm;20450;49.074;9.158;2023-09-30T08:36:51;44.73;40.98;52.41;;
61095;Laerm;20450;49.074;9.158;2023-09-30T08:39:19;43.49;40.62;52.02;;
61095;Laerm;20450;49.074;9.158;2023-09-30T08:41:46;43.28;40.13;54.65;;
61095;Laerm;20450;49.074;9.158;2023-09-30T08:44:13;44.48;41.75;50.60;;
61095;Laerm;20450;49.074;9.158;2023-09-30T08:46:44;45.08;43.19;48.49;;
61095;Laerm;20450;49.074;9.158;2023-09-30T08:49:12;50.04;43.29;63.67;;
61095;Laerm;20450;49.074;9.158;2023-09-30T08:51:44;45.04;42.16;54.86;;
61095;Laerm;20450;49.074;9.158;2023-09-30T08:54:11;43.14;41.14;46.89;;
61095;Laerm;20450;49.074;9.158;2023-09-30T08:56:43;44.47;42.41;51.93;;
61095;Laerm;20450;49.074;9.158;2023-09-30T08:59:12;45.02;42.53;53.24;;
61095;Laerm;20450;49.074;9.158;2023-09-30T09:01:40;45.05;42.65;51.08;;
61095;Laerm;20450;49.074;9.158;2023-09-30T09:04:07;46.47;43.58;67.83;;
61095;Laerm;20450;49.074;9.158;2023-09-30T09:06:36;45.55;43.34;56.06;;
61095;Laerm;20450;49.074;9.158;2023-09-30T09:09:18;46.12;43.99;52.53;;
61095;Laerm;20450;49.074;9.158;2023-09-30T09:11:45;45.45;43.68;51.78;;
61095;Laerm;20450;49.074;9.158;2023-09-30T09:14:12;45.89;43.99;50.93;;
61095;Laerm;20450;49.074;9.158;2023-09-30T09:16:56;47.11;44.76;52.26;;
61095;Laerm;20450;49.074;9.158;2023-09-30T09:19:23;49.23;45.01;60.46;;
61095;Laerm;20450;49.074;9.158;2023-09-30T09:21:57;48.00;45.31;54.55;;
61095;Laerm;20450;49.074;9.158;2023-09-30T09:24:35;47.13;44.90;51.49;;
61095;Laerm;20450;49.074;9.158;2023-09-30T09:27:07;46.09;43.49;53.62;;
61095;Laerm;20450;49.074;9.158;2023-09-30T09:29:36;44.46;40.89;49.06;;
61095;Laerm;20450;49.074;9.158;2023-09-30T09:32:09;43.63;39.70;55.96;;
61095;Laerm;20450;49.074;9.158;2023-09-30T09:34:38;47.04;42.82;59.54;;
61095;Laerm;20450;49.074;9.158;2023-09-30T09:37:17;46.85;44.39;57.96;;
61095;Laerm;20450;49.074;9.158;2023-09-30T09:39:54;46.18;43.54;51.22;;
61095;Laerm;20450;49.074;9.158;2023-09-30T09:42:27;46.65;43.29;52.72;;
61095;Laerm;20450;49.074;9.158;2023-09-30T09:44:57;46.32;42.22;63.72;;
61095;Laerm;20450;49.074;9.158;2023-09-30T09:47:25;45.68;42.09;62.78;;
61095;Laerm;20450;49.074;9.158;2023-09-30T09:49:53;44.72;41.11;60.63;;
61095;Laerm;20450;49.074;9.158;2023-09-30T09:52:21;45.12;42.65;54.39;;
61095;Laerm;20450;49.074;9.158;2023-09-30T09:54:52;46.04;43.63;55.67;;
61095;Laerm;20450;49.074;9.158;2023-09-30T09:57:20;47.64;43.39;59.64;;
61095;Laerm;20450;49.074;9.158;2023-09-30T09:59:47;46.51;44.07;52.11;;
61095;Laerm;20450;49.074;9.158;2023-09-30T10:02:16;45.04;42.03;50.48;;
61095;Laerm;20450;49.074;9.158;2023-09-30T10:04:44;45.53;42.16;53.43;;
61095;Laerm;20450;49.074;9.158;2023-09-30T10:07:21;45.15;41.61;52.17;;
61095;Laerm;20450;49.074;9.158;2023-09-30T10:09:53;45.08;42.09;64.21;;
61095;Laerm;20450;49.074;9.158;2023-09-30T10:12:22;46.66;42.53;67.01;;
61095;Laerm;20450;49.074;9.158;2023-09-30T10:14:52;47.59;42.59;57.19;;
61095;Laerm;20450;49.074;9.158;2023-09-30T10:17:19;48.14;43.63;60.42;;
61095;Laerm;20450;49.074;9.158;2023-09-30T10:20:04;47.87;43.68;58.05;;
61095;Laerm;20450;49.074;9.158;2023-09-30T10:22:32;48.04;42.76;57.89;;
61095;Laerm;20450;49.074;9.158;2023-09-30T10:25:34;47.61;42.93;57.63;;
61095;Laerm;20450;49.074;9.158;2023-09-30T10:28:33;47.50;43.99;67.44;;
61095;Laerm;20450;49.074;9.158;2023-09-30T10:31:13;45.79;43.19;50.07;;
61095;Laerm;20450;49.074;9.158;2023-09-30T10:34:20;45.34;41.46;56.22;;
61095;Laerm;20450;49.074;9.158;2023-09-30T10:36:49;44.35;41.46;59.75;;
61095;Laerm;20450;49.074;9.158;2023-09-30T10:39:56;44.40;40.43;58.25;;
61095;Laerm;20450;49.074;9.158;2023-09-30T10:42:48;44.58;41.61;49.11;;
61095;Laerm;20450;49.074;9.158;2023-09-30T10:45:44;46.28;44.03;49.72;;
61095;Laerm;20450;49.074;9.158;2023-09-30T10:48:37;47.49;45.04;53.04;;
61095;Laerm;20450;49.074;9.158;2023-09-30T10:51:16;45.79;42.22;56.58;;
61095;Laerm;20450;49.074;9.158;2023-09-30T10:53:46;45.22;41.89;50.40;;
61095;Laerm;20450;49.074;9.158;2023-09-30T10:56:14;45.62;41.61;53.96;;
61095;Laerm;20450;49.074;9.158;2023-09-30T10:58:45;45.85;41.46;53.91;;
61095;Laerm;20450;49.074;9.158;2023-09-30T11:01:14;46.64;43.86;52.02;;
61095;Laerm;20450;49.074;9.158;2023-09-30T11:03:42;47.50;44.65;65.08;;
61095;Laerm;20450;49.074;9.158;2023-09-30T11:06:14;48.11;44.15;52.16;;
61095;Laerm;20450;49.074;9.158;2023-09-30T11:08:46;46.36;42.88;52.17;;
61095;Laerm;20450;49.074;9.158;2023-09-30T11:11:16;45.47;41.46;53.35;;
61095;Laerm;20450;49.074;9.158;2023-09-30T11:13:46;45.33;43.39;52.62;;
61095;Laerm;20450;49.074;9.158;2023-09-30T11:16:14;46.30;43.58;53.34;;
61095;Laerm;20450;49.074;9.158;2023-09-30T11:18:41;46.76;44.51;51.89;;
61095;Laerm;20450;49.074;9.158;2023-09-30T11:21:10;46.30;43.99;51.41;;
61095;Laerm;20450;49.074;9.158;2023-09-30T11:23:40;48.29;44.27;70.91;;
61095;Laerm;20450;49.074;9.158;2023-09-30T11:26:10;47.20;44.58;50.83;;
61095;Laerm;20450;49.074;9.158;2023-09-30T11:28:41;46.97;44.31;50.43;;
61095;Laerm;20450;49.074;9.158;2023-09-30T11:31:12;45.90;43.77;49.00;;
61095;Laerm;20450;49.074;9.158;2023-09-30T11:33:50;47.48;44.69;51.40;;
61095;Laerm;20450;49.074;9.158;2023-09-30T11:36:20;47.15;44.03;55.83;;
61095;Laerm;20450;49.074;9.158;2023-09-30T11:38:51;46.88;43.99;53.51;;
61095;Laerm;20450;49.074;9.158;2023-09-30T11:41:19;46.63;43.58;56.25;;
61095;Laerm;20450;49.074;9.158;2023-09-30T11:44:02;47.57;40.98;56.50;;
61095;Laerm;20450;49.074;9.158;2023-09-30T11:46:32;45.83;40.89;57.54;;
61095;Laerm;20450;49.074;9.158;2023-09-30T11:49:03;46.32;42.03;67.32;;
61095;Laerm;20450;49.074;9.158;2023-09-30T11:51:43;46.58;43.04;54.55;;
61095;Laerm;20450;49.074;9.158;2023-09-30T11:54:10;47.33;44.52;52.64;;
61095;Laerm;20450;49.074;9.158;2023-09-30T11:56:37;48.00;45.01;55.92;;
61095;Laerm;20450;49.074;9.158;2023-09-30T11:59:04;47.49;44.62;51.31;;
61095;Laerm;20450;49.074;9.158;2023-09-30T12:01:34;45.87;42.65;52.23;;
61095;Laerm;20450;49.074;9.158;2023-09-30T12:04:01;45.74;43.34;52.14;;
61095;Laerm;20450;49.074;9.158;2023-09-30T12:06:28;48.15;43.24;67.75;;
61095;Laerm;20450;49.074;9.158;2023-09-30T12:08:55;46.72;44.01;57.84;;
61095;Laerm;20450;49.074;9.158;2023-09-30T12:11:23;46.66;44.39;61.52;;
61095;Laerm;20450;49.074;9.158;2023-09-30T12:13:51;44.59;41.96;48.10;;
61095;Laerm;20450;49.074;9.158;2023-09-30T12:16:18;45.35;42.35;58.27;;
61095;Laerm;20450;49.074;9.158;2023-09-30T12:18:47;43.35;39.46;56.54;;
61095;Laerm;20450;49.074;9.158;2023-09-30T12:21:14;43.80;40.43;54.76;;
61095;Laerm;20450;49.074;9.158;2023-09-30T12:23:41;45.33;42.16;50.62;;
61095;Laerm;20450;49.074;9.158;2023-09-30T12:26:08;48.17;44.07;53.04;;
61095;Laerm;20450;49.074;9.158;2023-09-30T12:28:41;50.56;46.89;53.81;;
61095;Laerm;20450;49.074;9.158;2023-09-30T12:31:08;49.24;45.97;52.71;;
61095;Laerm;20450;49.074;9.158;2023-09-30T12:33:35;49.32;46.73;56.76;;
61095;Laerm;20450;49.074;9.158;2023-09-30T12:36:04;49.18;46.87;58.49;;
61095;Laerm;20450;49.074;9.158;2023-09-30T12:38:31;47.84;45.42;51.17;;
61095;Laerm;20450;49.074;9.158;2023-09-30T12:40:58;47.73;44.54;56.79;;
61095;Laerm;20450;49.074;9.158;2023-09-30T12:43:26;47.60;44.23;52.49;;
61095;Laerm;20450;49.074;9.158;2023-09-30T12:45:53;47.42;43.54;51.99;;
61095;Laerm;20450;49.074;9.158;2023-09-30T12:48:20;47.98;44.80;55.01;;
61095;Laerm;20450;49.074;9.158;2023-09-30T12:50:47;45.74;42.03;51.42;;
61095;Laerm;20450;49.074;9.158;2023-09-30T12:53:16;43.38;39.58;57.35;;
61095;Laerm;20450;49.074;9.158;2023-09-30T12:55:43;43.15;38.52;49.28;;
61095;Laerm;20450;49.074;9.158;2023-09-30T12:58:11;43.85;39.70;47.93;;
61095;Laerm;20450;49.074;9.158;2023-09-30T13:00:38;46.08;43.29;55.59;;
61095;Laerm;20450;49.074;9.158;2023-09-30T13:03:05;47.92;44.76;56.06;;
61095;Laerm;20450;49.074;9.158;2023-09-30T13:05:33;47.65;44.73;56.25;;
61095;Laerm;20450;49.074;9.158;2023-09-30T13:08:00;47.94;44.83;59.72;;
61095;Laerm;20450;49.074;9.158;2023-09-30T13:10:28;47.38;43.77;53.66;;
61095;Laerm;20450;49.074;9.158;2023-09-30T13:12:55;46.54;43.63;56.19;;
61095;Laerm;20450;49.074;9.158;2023-09-30T13:15:22;46.24;42.76;66.14;;
61095;Laerm;20450;49.074;9.158;2023-09-30T13:17:49;46.41;42.59;56.00;;
61095;Laerm;20450;49.074;9.158;2023-09-30T13:20:16;48.20;43.09;63.31;;
61095;Laerm;20450;49.074;9.158;2023-09-30T13:22:44;46.84;43.19;64.07;;
61095;Laerm;20450;49.074;9.158;2023-09-30T13:25:12;46.00;41.30;65.46;;
61095;Laerm;20450;49.074;9.158;2023-09-30T13:27:40;46.84;41.46;67.99;;
61095;Laerm;20450;49.074;9.158;2023-09-30T13:30:09;48.22;42.65;71.74;;
61095;Laerm;20450;49.074;9.158;2023-09-30T13:32:36;49.09;45.30;54.31;;
61095;Laerm;20450;49.074;9.158;2023-09-30T13:35:03;47.08;43.04;59.50;;
61095;Laerm;20450;49.074;9.158;2023-09-30T13:37:31;46.56;44.19;49.94;;
61095;Laerm;20450;49.074;9.158;2023-09-30T13:39:58;47.84;44.97;52.74;;
61095;Laerm;20450;49.074;9.158;2023-09-30T13:42:27;49.96;47.48;52.53;;
61095;Laerm;20450;49.074;9.158;2023-09-30T13:44:56;49.26;46.07;54.48;;
61095;Laerm;20450;49.074;9.158;2023-09-30T13:47:24;47.77;43.81;52.20;;
61095;Laerm;20450;49.074;9.158;2023-09-30T13:49:52;47.03;43.68;53.49;;
61095;Laerm;20450;49.074;9.158;2023-09-30T13:52:20;45.79;40.23;53.44;;
61095;Laerm;20450;49.074;9.158;2023-09-30T13:54:47;46.57;39.08;61.36;;